sensor_id;sensor_type;location;lat;lon;timestamp;pressure;altitude;pressure_sealevel;temperature;humidity
24160;BME280;62385;41.594;23.808;2023-11-21T00:02:48;95343.50;;;2.30;82.86
24160;BME280;62385;41.594;23.808;2023-11-21T00:12:41;95427.84;;;2.88;81.84
24160;BME280;62385;41.594;23.808;2023-11-21T00:16:05;95420.59;;;2.59;82.39
24160;BME280;62385;41.594;23.808;2023-11-21T00:18:40;95391.03;;;2.25;82.98
24160;BME280;62385;41.594;23.808;2023-11-21T00:21:05;95422.09;;;2.30;83.67
24160;BME280;62385;41.594;23.808;2023-11-21T00:23:31;95401.59;;;2.35;83.85
24160;BME280;62385;41.594;23.808;2023-11-21T00:25:57;95416.88;;;2.19;83.01
24160;BME280;62385;41.594;23.808;2023-11-21T00:28:23;95417.78;;;2.29;83.77
24160;BME280;62385;41.594;23.808;2023-11-21T00:30:48;95419.47;;;2.30;84.19
24160;BME280;62385;41.594;23.808;2023-11-21T00:33:14;95438.97;;;2.37;83.53
24160;BME280;62385;41.594;23.808;2023-11-21T00:35:40;95416.16;;;2.17;83.53
24160;BME280;62385;41.594;23.808;2023-11-21T00:38:05;95427.00;;;2.23;83.03
24160;BME280;62385;41.594;23.808;2023-11-21T00:40:31;95438.19;;;2.03;83.84
24160;BME280;62385;41.594;23.808;2023-11-21T00:42:57;95429.72;;;2.22;83.15
24160;BME280;62385;41.594;23.808;2023-11-21T00:45:23;95430.66;;;2.21;83.33
24160;BME280;62385;41.594;23.808;2023-11-21T00:47:49;95440.06;;;2.35;84.38
24160;BME280;62385;41.594;23.808;2023-11-21T00:50:15;95435.56;;;2.57;84.38
24160;BME280;62385;41.594;23.808;2023-11-21T00:52:41;95427.50;;;2.49;84.07
24160;BME280;62385;41.594;23.808;2023-11-21T00:55:07;95412.56;;;2.29;83.90
24160;BME280;62385;41.594;23.808;2023-11-21T00:57:33;95430.16;;;2.38;83.99
24160;BME280;62385;41.594;23.808;2023-11-21T00:59:59;95428.84;;;2.32;83.91
24160;BME280;62385;41.594;23.808;2023-11-21T01:02:26;95428.47;;;2.48;83.02
24160;BME280;62385;41.594;23.808;2023-11-21T01:04:52;95399.81;;;2.36;83.64
24160;BME280;62385;41.594;23.808;2023-11-21T01:07:18;95423.63;;;2.75;83.09
24160;BME280;62385;41.594;23.808;2023-11-21T01:09:46;95435.22;;;2.62;83.11
24160;BME280;62385;41.594;23.808;2023-11-21T01:12:12;95430.88;;;2.40;83.25
24160;BME280;62385;41.594;23.808;2023-11-21T01:14:39;95436.34;;;2.37;84.43
24160;BME280;62385;41.594;23.808;2023-11-21T01:17:05;95433.88;;;2.36;84.20
24160;BME280;62385;41.594;23.808;2023-11-21T01:19:30;95429.97;;;2.19;84.64
24160;BME280;62385;41.594;23.808;2023-11-21T01:21:56;95383.69;;;2.08;83.51
24160;BME280;62385;41.594;23.808;2023-11-21T01:24:23;95423.31;;;2.15;84.09
24160;BME280;62385;41.594;23.808;2023-11-21T01:26:49;95378.97;;;1.69;85.73
24160;BME280;62385;41.594;23.808;2023-11-21T01:29:14;95411.63;;;2.19;85.09
24160;BME280;62385;41.594;23.808;2023-11-21T01:31:40;95428.66;;;2.13;85.21
24160;BME280;62385;41.594;23.808;2023-11-21T01:34:06;95425.94;;;2.04;85.17
24160;BME280;62385;41.594;23.808;2023-11-21T01:36:33;95421.03;;;1.99;84.95
24160;BME280;62385;41.594;23.808;2023-11-21T01:38:59;95405.09;;;2.13;84.95
24160;BME280;62385;41.594;23.808;2023-11-21T01:41:28;95412.56;;;2.29;85.14
24160;BME280;62385;41.594;23.808;2023-11-21T01:43:55;95417.84;;;2.61;83.02
24160;BME280;62385;41.594;23.808;2023-11-21T01:46:22;95402.88;;;2.41;82.87
24160;BME280;62385;41.594;23.808;2023-11-21T01:49:05;95423.19;;;2.59;82.32
24160;BME280;62385;41.594;23.808;2023-11-21T01:51:38;95414.78;;;2.45;82.48
24160;BME280;62385;41.594;23.808;2023-11-21T01:57:03;95415.91;;;2.31;82.77
24160;BME280;62385;41.594;23.808;2023-11-21T01:59:36;95413.91;;;2.23;83.30
24160;BME280;62385;41.594;23.808;2023-11-21T02:02:06;95411.31;;;2.01;83.74
24160;BME280;62385;41.594;23.808;2023-11-21T02:04:33;95406.31;;;1.98;84.70
24160;BME280;62385;41.594;23.808;2023-11-21T02:07:00;95419.03;;;1.92;85.66
24160;BME280;62385;41.594;23.808;2023-11-21T02:09:29;95416.63;;;2.22;84.03
24160;BME280;62385;41.594;23.808;2023-11-21T02:11:56;95385.00;;;1.92;83.08
24160;BME280;62385;41.594;23.808;2023-11-21T02:14:26;95420.22;;;1.88;84.04
24160;BME280;62385;41.594;23.808;2023-11-21T02:16:56;95383.06;;;2.16;83.12
24160;BME280;62385;41.594;23.808;2023-11-21T02:19:23;95417.09;;;2.27;83.62
24160;BME280;62385;41.594;23.808;2023-11-21T02:21:54;95426.81;;;2.36;82.89
24160;BME280;62385;41.594;23.808;2023-11-21T02:24:29;95409.00;;;2.30;82.80
24160;BME280;62385;41.594;23.808;2023-11-21T02:27:00;95408.41;;;2.15;83.15
24160;BME280;62385;41.594;23.808;2023-11-21T02:29:28;95407.94;;;2.21;82.89
24160;BME280;62385;41.594;23.808;2023-11-21T02:31:54;95411.31;;;1.79;83.89
24160;BME280;62385;41.594;23.808;2023-11-21T02:34:21;95420.72;;;1.93;83.66
24160;BME280;62385;41.594;23.808;2023-11-21T02:36:47;95404.66;;;1.86;83.95
24160;BME280;62385;41.594;23.808;2023-11-21T02:39:17;95416.66;;;1.89;84.31
24160;BME280;62385;41.594;23.808;2023-11-21T02:41:43;95410.06;;;2.16;83.83
24160;BME280;62385;41.594;23.808;2023-11-21T02:44:10;95421.72;;;2.35;82.90
24160;BME280;62385;41.594;23.808;2023-11-21T02:46:36;95415.53;;;2.24;82.33
24160;BME280;62385;41.594;23.808;2023-11-21T02:49:06;95412.72;;;2.05;83.18
24160;BME280;62385;41.594;23.808;2023-11-21T02:51:32;95388.13;;;1.74;83.66
24160;BME280;62385;41.594;23.808;2023-11-21T02:53:58;95382.53;;;1.90;83.62
24160;BME280;62385;41.594;23.808;2023-11-21T02:56:27;95388.22;;;1.62;84.21
24160;BME280;62385;41.594;23.808;2023-11-21T02:58:55;95412.75;;;1.94;83.62
24160;BME280;62385;41.594;23.808;2023-11-21T03:01:21;95389.91;;;1.85;84.04
24160;BME280;62385;41.594;23.808;2023-11-21T03:03:46;95363.13;;;1.70;83.78
24160;BME280;62385;41.594;23.808;2023-11-21T03:06:13;95380.28;;;1.63;84.25
24160;BME280;62385;41.594;23.808;2023-11-21T03:08:39;95408.94;;;1.76;83.94
24160;BME280;62385;41.594;23.808;2023-11-21T03:11:07;95406.53;;;1.95;84.32
24160;BME280;62385;41.594;23.808;2023-11-21T03:13:33;95392.66;;;1.95;84.06
24160;BME280;62385;41.594;23.808;2023-11-21T03:15:59;95409.34;;;2.25;82.62
24160;BME280;62385;41.594;23.808;2023-11-21T03:18:25;95375.63;;;1.89;83.38
24160;BME280;62385;41.594;23.808;2023-11-21T03:20:53;95394.50;;;2.15;82.67
24160;BME280;62385;41.594;23.808;2023-11-21T03:23:19;95388.06;;;2.19;82.82
24160;BME280;62385;41.594;23.808;2023-11-21T03:25:47;95400.19;;;2.31;82.25
24160;BME280;62385;41.594;23.808;2023-11-21T03:28:14;95391.44;;;1.99;82.30
24160;BME280;62385;41.594;23.808;2023-11-21T03:30:40;95410.94;;;2.06;82.45
24160;BME280;62385;41.594;23.808;2023-11-21T03:33:05;95395.50;;;2.03;83.21
24160;BME280;62385;41.594;23.808;2023-11-21T03:35:31;95406.75;;;2.03;83.27
24160;BME280;62385;41.594;23.808;2023-11-21T03:37:58;95405.97;;;2.03;82.36
24160;BME280;62385;41.594;23.808;2023-11-21T03:40:23;95406.31;;;1.98;82.80
24160;BME280;62385;41.594;23.808;2023-11-21T03:42:49;95399.41;;;1.97;81.56
24160;BME280;62385;41.594;23.808;2023-11-21T03:45:15;95377.88;;;1.82;81.92
24160;BME280;62385;41.594;23.808;2023-11-21T03:47:42;95407.38;;;2.07;81.87
24160;BME280;62385;41.594;23.808;2023-11-21T03:50:08;95404.66;;;1.86;83.98
24160;BME280;62385;41.594;23.808;2023-11-21T03:52:37;95416.19;;;1.83;83.99
24160;BME280;62385;41.594;23.808;2023-11-21T03:55:02;95395.50;;;1.69;83.66
24160;BME280;62385;41.594;23.808;2023-11-21T03:57:28;95413.69;;;1.93;83.07
24160;BME280;62385;41.594;23.808;2023-11-21T03:59:54;95414.28;;;1.97;82.81
24160;BME280;62385;41.594;23.808;2023-11-21T04:02:19;95409.53;;;1.68;82.36
24160;BME280;62385;41.594;23.808;2023-11-21T04:04:45;95387.03;;;1.66;82.68
24160;BME280;62385;41.594;23.808;2023-11-21T04:07:11;95371.34;;;1.77;82.01
24160;BME280;62385;41.594;23.808;2023-11-21T04:09:39;95361.72;;;1.55;82.31
24160;BME280;62385;41.594;23.808;2023-11-21T04:12:07;95392.16;;;1.67;81.85
24160;BME280;62385;41.594;23.808;2023-11-21T04:14:34;95419.25;;;1.33;82.57
24160;BME280;62385;41.594;23.808;2023-11-21T04:16:59;95411.03;;;1.15;83.38
24160;BME280;62385;41.594;23.808;2023-11-21T04:19:25;95417.88;;;1.05;84.31
24160;BME280;62385;41.594;23.808;2023-11-21T04:21:51;95419.59;;;1.28;83.91
24160;BME280;62385;41.594;23.808;2023-11-21T04:24:16;95410.59;;;1.44;84.19
24160;BME280;62385;41.594;23.808;2023-11-21T04:26:43;95430.59;;;1.78;82.88
24160;BME280;62385;41.594;23.808;2023-11-21T04:29:09;95353.88;;;1.11;82.91
24160;BME280;62385;41.594;23.808;2023-11-21T04:31:34;95420.50;;;1.73;81.70
24160;BME280;62385;41.594;23.808;2023-11-21T04:34:00;95384.66;;;1.29;82.14
24160;BME280;62385;41.594;23.808;2023-11-21T04:36:26;95420.47;;;1.40;82.53
24160;BME280;62385;41.594;23.808;2023-11-21T04:38:51;95416.66;;;1.55;82.54
24160;BME280;62385;41.594;23.808;2023-11-21T04:41:17;95405.50;;;1.64;82.46
24160;BME280;62385;41.594;23.808;2023-11-21T04:43:43;95408.47;;;1.71;81.99
24160;BME280;62385;41.594;23.808;2023-11-21T04:46:09;95400.03;;;1.56;82.44
24160;BME280;62385;41.594;23.808;2023-11-21T04:48:34;95402.50;;;1.80;81.66
24160;BME280;62385;41.594;23.808;2023-11-21T04:51:00;95423.69;;;1.77;82.02
24160;BME280;62385;41.594;23.808;2023-11-21T04:53:25;95422.03;;;1.76;81.80
24160;BME280;62385;41.594;23.808;2023-11-21T04:55:51;95434.72;;;1.58;82.53
24160;BME280;62385;41.594;23.808;2023-11-21T04:58:17;95418.78;;;1.28;82.98
24160;BME280;62385;41.594;23.808;2023-11-21T05:00:42;95417.69;;;1.19;84.24
24160;BME280;62385;41.594;23.808;2023-11-21T05:03:09;95425.44;;;1.43;83.79
24160;BME280;62385;41.594;23.808;2023-11-21T05:05:35;95406.28;;;1.20;83.54
24160;BME280;62385;41.594;23.808;2023-11-21T05:08:00;95430.81;;;1.53;83.27
24160;BME280;62385;41.594;23.808;2023-11-21T05:10:27;95429.59;;;1.46;84.18
24160;BME280;62385;41.594;23.808;2023-11-21T05:12:52;95428.34;;;1.73;83.47
24160;BME280;62385;41.594;23.808;2023-11-21T05:15:18;95437.03;;;1.74;83.28
24160;BME280;62385;41.594;23.808;2023-11-21T05:17:44;95398.25;;;1.57;83.62
24160;BME280;62385;41.594;23.808;2023-11-21T05:20:11;95434.47;;;2.17;82.34
24160;BME280;62385;41.594;23.808;2023-11-21T05:22:38;95424.72;;;2.19;82.22
24160;BME280;62385;41.594;23.808;2023-11-21T05:25:05;95429.75;;;2.11;80.57
24160;BME280;62385;41.594;23.808;2023-11-21T05:27:32;95442.22;;;2.07;81.57
24160;BME280;62385;41.594;23.808;2023-11-21T05:29:59;95454.84;;;2.13;80.71
24160;BME280;62385;41.594;23.808;2023-11-21T05:32:25;95455.34;;;1.74;81.24
24160;BME280;62385;41.594;23.808;2023-11-21T05:34:51;95468.88;;;1.79;82.76
24160;BME280;62385;41.594;23.808;2023-11-21T05:37:17;95458.31;;;1.92;83.41
24160;BME280;62385;41.594;23.808;2023-11-21T05:39:43;95442.00;;;1.99;82.92
24160;BME280;62385;41.594;23.808;2023-11-21T05:42:08;95448.31;;;2.19;83.27
24160;BME280;62385;41.594;23.808;2023-11-21T05:44:37;95450.31;;;2.26;83.15
24160;BME280;62385;41.594;23.808;2023-11-21T05:47:02;95453.25;;;2.33;82.55
24160;BME280;62385;41.594;23.808;2023-11-21T05:49:29;95466.59;;;2.52;81.82
24160;BME280;62385;41.594;23.808;2023-11-21T05:52:01;95465.50;;;2.55;82.31
24160;BME280;62385;41.594;23.808;2023-11-21T05:54:34;95437.03;;;2.50;81.41
24160;BME280;62385;41.594;23.808;2023-11-21T05:57:13;95456.66;;;2.67;81.08
24160;BME280;62385;41.594;23.808;2023-11-21T06:00:41;95452.56;;;2.74;81.42
24160;BME280;62385;41.594;23.808;2023-11-21T07:09:17;95467.50;;;3.98;80.19
24160;BME280;62385;41.594;23.808;2023-11-21T07:15:59;95469.06;;;4.40;80.14
24160;BME280;62385;41.594;23.808;2023-11-21T07:18:25;95469.38;;;4.56;80.19
24160;BME280;62385;41.594;23.808;2023-11-21T07:20:51;95465.78;;;4.57;79.94
24160;BME280;62385;41.594;23.808;2023-11-21T07:23:17;95457.22;;;4.65;80.19
24160;BME280;62385;41.594;23.808;2023-11-21T07:25:43;95464.72;;;4.79;79.72
24160;BME280;62385;41.594;23.808;2023-11-21T07:28:09;95462.38;;;4.95;79.05
24160;BME280;62385;41.594;23.808;2023-11-21T07:30:35;95459.19;;;4.82;79.95
24160;BME280;62385;41.594;23.808;2023-11-21T07:33:00;95458.63;;;4.98;79.52
24160;BME280;62385;41.594;23.808;2023-11-21T07:35:26;95464.19;;;5.14;79.10
24160;BME280;62385;41.594;23.808;2023-11-21T07:37:52;95446.63;;;5.05;79.68
24160;BME280;62385;41.594;23.808;2023-11-21T07:40:17;95439.00;;;5.11;79.15
24160;BME280;62385;41.594;23.808;2023-11-21T07:42:43;95412.69;;;4.83;79.25
24160;BME280;62385;41.594;23.808;2023-11-21T07:45:09;95424.31;;;5.09;78.10
24160;BME280;62385;41.594;23.808;2023-11-21T07:47:35;95426.25;;;5.17;77.78
24160;BME280;62385;41.594;23.808;2023-11-21T07:50:04;95453.50;;;5.54;77.76
24160;BME280;62385;41.594;23.808;2023-11-21T07:52:30;95448.22;;;5.64;78.11
24160;BME280;62385;41.594;23.808;2023-11-21T07:54:56;95428.16;;;5.53;78.93
24160;BME280;62385;41.594;23.808;2023-11-21T07:57:22;95452.81;;;5.62;78.27
24160;BME280;62385;41.594;23.808;2023-11-21T07:59:51;95442.03;;;5.26;79.54
24160;BME280;62385;41.594;23.808;2023-11-21T08:02:19;95431.19;;;5.39;78.36
24160;BME280;62385;41.594;23.808;2023-11-21T08:04:45;95457.47;;;5.68;78.88
24160;BME280;62385;41.594;23.808;2023-11-21T08:07:11;95454.97;;;5.85;78.29
24160;BME280;62385;41.594;23.808;2023-11-21T08:09:36;95465.22;;;5.98;78.63
24160;BME280;62385;41.594;23.808;2023-11-21T08:12:03;95467.72;;;5.99;77.80
24160;BME280;62385;41.594;23.808;2023-11-21T08:50:32;95417.16;;;8.16;69.86
24160;BME280;62385;41.594;23.808;2023-11-21T08:53:16;95411.22;;;7.88;72.39
24160;BME280;62385;41.594;23.808;2023-11-21T08:55:42;95420.66;;;7.91;72.35
24160;BME280;62385;41.594;23.808;2023-11-21T08:58:09;95389.66;;;8.01;71.59
24160;BME280;62385;41.594;23.808;2023-11-21T09:00:35;95412.97;;;8.31;70.45
24160;BME280;62385;41.594;23.808;2023-11-21T09:03:01;95366.78;;;8.18;69.90
24160;BME280;62385;41.594;23.808;2023-11-21T09:05:28;95385.53;;;7.99;70.79
24160;BME280;62385;41.594;23.808;2023-11-21T09:07:54;95356.47;;;8.41;69.76
24160;BME280;62385;41.594;23.808;2023-11-21T09:10:19;95382.66;;;8.60;69.40
24160;BME280;62385;41.594;23.808;2023-11-21T09:12:46;95378.41;;;8.83;66.89
24160;BME280;62385;41.594;23.808;2023-11-21T09:15:11;95364.19;;;8.92;66.19
24160;BME280;62385;41.594;23.808;2023-11-21T09:17:37;95363.47;;;8.66;67.05
24160;BME280;62385;41.594;23.808;2023-11-21T09:20:04;95355.00;;;8.54;67.11
24160;BME280;62385;41.594;23.808;2023-11-21T09:22:31;95361.06;;;8.97;66.22
24160;BME280;62385;41.594;23.808;2023-11-21T09:24:57;95360.84;;;8.74;67.36
24160;BME280;62385;41.594;23.808;2023-11-21T09:27:26;95352.25;;;8.80;67.40
24160;BME280;62385;41.594;23.808;2023-11-21T09:29:51;95347.97;;;8.79;67.28
24160;BME280;62385;41.594;23.808;2023-11-21T09:32:21;95329.13;;;8.90;66.98
24160;BME280;62385;41.594;23.808;2023-11-21T09:34:48;95338.91;;;8.98;67.61
24160;BME280;62385;41.594;23.808;2023-11-21T09:37:14;95332.56;;;8.74;68.55
24160;BME280;62385;41.594;23.808;2023-11-21T09:39:40;95336.75;;;9.01;66.64
24160;BME280;62385;41.594;23.808;2023-11-21T09:42:17;95334.09;;;9.17;66.96
24160;BME280;62385;41.594;23.808;2023-11-21T09:45:06;95329.13;;;9.14;66.66
24160;BME280;62385;41.594;23.808;2023-11-21T09:47:38;95329.78;;;9.24;65.70
24160;BME280;62385;41.594;23.808;2023-11-21T09:50:05;95313.06;;;9.24;64.97
24160;BME280;62385;41.594;23.808;2023-11-21T10:02:43;95301.47;;;9.33;63.10
24160;BME280;62385;41.594;23.808;2023-11-21T10:05:09;95293.66;;;9.48;62.77
24160;BME280;62385;41.594;23.808;2023-11-21T10:07:41;95286.31;;;9.66;62.19
24160;BME280;62385;41.594;23.808;2023-11-21T10:10:46;95292.25;;;9.84;62.29
24160;BME280;62385;41.594;23.808;2023-11-21T10:44:45;95236.38;;;10.55;59.73
24160;BME280;62385;41.594;23.808;2023-11-21T11:39:31;95129.06;;;11.75;58.56
24160;BME280;62385;41.594;23.808;2023-11-21T11:42:06;95125.09;;;11.86;58.29
24160;BME280;62385;41.594;23.808;2023-11-21T11:47:19;95114.28;;;11.73;57.99
24160;BME280;62385;41.594;23.808;2023-11-21T11:50:05;95117.41;;;11.76;58.24
24160;BME280;62385;41.594;23.808;2023-11-21T11:52:49;95116.59;;;11.97;59.24
24160;BME280;62385;41.594;23.808;2023-11-21T11:55:17;95096.69;;;12.08;57.49
24160;BME280;62385;41.594;23.808;2023-11-21T11:57:44;95111.75;;;12.00;58.68
24160;BME280;62385;41.594;23.808;2023-11-21T12:02:48;95073.16;;;11.54;59.52
24160;BME280;62385;41.594;23.808;2023-11-21T12:05:19;95101.25;;;11.92;59.42
24160;BME280;62385;41.594;23.808;2023-11-21T12:07:51;95098.31;;;11.87;60.36
24160;BME280;62385;41.594;23.808;2023-11-21T12:10:21;95095.66;;;11.87;60.35
24160;BME280;62385;41.594;23.808;2023-11-21T12:12:49;95094.44;;;11.90;60.46
24160;BME280;62385;41.594;23.808;2023-11-21T12:15:16;95082.63;;;11.92;60.65
24160;BME280;62385;41.594;23.808;2023-11-21T12:17:43;95069.13;;;11.94;60.14
24160;BME280;62385;41.594;23.808;2023-11-21T12:20:10;95082.00;;;12.12;59.79
24160;BME280;62385;41.594;23.808;2023-11-21T12:23:02;95072.16;;;12.33;59.63
24160;BME280;62385;41.594;23.808;2023-11-21T12:25:30;95075.13;;;12.24;60.14
24160;BME280;62385;41.594;23.808;2023-11-21T12:28:01;95071.84;;;11.79;62.16
24160;BME280;62385;41.594;23.808;2023-11-21T12:30:33;95073.41;;;11.74;61.43
24160;BME280;62385;41.594;23.808;2023-11-21T12:33:01;95077.16;;;11.79;62.43
24160;BME280;62385;41.594;23.808;2023-11-21T12:35:36;95067.72;;;11.62;62.21
24160;BME280;62385;41.594;23.808;2023-11-21T12:38:04;95074.66;;;11.42;62.23
24160;BME280;62385;41.594;23.808;2023-11-21T12:40:37;95050.38;;;11.16;62.66
24160;BME280;62385;41.594;23.808;2023-11-21T12:43:04;95072.38;;;11.24;62.47
24160;BME280;62385;41.594;23.808;2023-11-21T12:45:42;95054.69;;;11.02;62.45
24160;BME280;62385;41.594;23.808;2023-11-21T12:48:53;95072.09;;;11.34;62.13
24160;BME280;62385;41.594;23.808;2023-11-21T12:51:35;95069.16;;;11.29;61.83
24160;BME280;62385;41.594;23.808;2023-11-21T12:54:48;95058.25;;;11.38;62.12
24160;BME280;62385;41.594;23.808;2023-11-21T12:57:30;95062.03;;;11.65;61.31
24160;BME280;62385;41.594;23.808;2023-11-21T12:59:57;95053.03;;;11.66;61.24
24160;BME280;62385;41.594;23.808;2023-11-21T13:02:26;95038.31;;;11.49;61.59
24160;BME280;62385;41.594;23.808;2023-11-21T13:04:52;95055.44;;;11.61;61.63
24160;BME280;62385;41.594;23.808;2023-11-21T13:07:19;94994.06;;;11.41;61.54
24160;BME280;62385;41.594;23.808;2023-11-21T13:09:45;95021.00;;;11.53;61.36
24160;BME280;62385;41.594;23.808;2023-11-21T13:12:11;95053.88;;;11.52;61.57
24160;BME280;62385;41.594;23.808;2023-11-21T13:14:40;95048.06;;;11.78;61.18
24160;BME280;62385;41.594;23.808;2023-11-21T13:17:05;95006.75;;;11.61;61.26
24160;BME280;62385;41.594;23.808;2023-11-21T13:19:31;95014.50;;;11.77;61.54
24160;BME280;62385;41.594;23.808;2023-11-21T13:21:56;95052.88;;;11.53;61.76
24160;BME280;62385;41.594;23.808;2023-11-21T13:24:24;95017.78;;;11.43;61.68
24160;BME280;62385;41.594;23.808;2023-11-21T13:26:51;95038.66;;;11.61;61.31
24160;BME280;62385;41.594;23.808;2023-11-21T13:29:17;95050.88;;;11.55;62.24
24160;BME280;62385;41.594;23.808;2023-11-21T13:31:42;95053.34;;;11.56;61.64
24160;BME280;62385;41.594;23.808;2023-11-21T13:34:23;95049.34;;;11.31;61.87
24160;BME280;62385;41.594;23.808;2023-11-21T13:41:00;95015.91;;;11.37;60.96
24160;BME280;62385;41.594;23.808;2023-11-21T13:43:40;95047.41;;;11.54;61.30
24160;BME280;62385;41.594;23.808;2023-11-21T15:25:49;95053.44;;;9.63;73.75
24160;BME280;62385;41.594;23.808;2023-11-21T15:28:18;95058.22;;;9.67;72.89
24160;BME280;62385;41.594;23.808;2023-11-21T15:34:50;95057.91;;;9.62;72.52
24160;BME280;62385;41.594;23.808;2023-11-21T15:41:35;95060.22;;;9.65;73.24
24160;BME280;62385;41.594;23.808;2023-11-21T15:44:01;95061.03;;;9.43;73.46
24160;BME280;62385;41.594;23.808;2023-11-21T15:46:27;95069.97;;;9.73;72.26
24160;BME280;62385;41.594;23.808;2023-11-21T15:48:53;95064.25;;;9.53;72.58
24160;BME280;62385;41.594;23.808;2023-11-21T15:51:20;95062.00;;;9.42;72.78
24160;BME280;62385;41.594;23.808;2023-11-21T15:53:46;95047.47;;;9.38;72.61
24160;BME280;62385;41.594;23.808;2023-11-21T15:56:11;95055.09;;;9.64;72.16
24160;BME280;62385;41.594;23.808;2023-11-21T15:58:41;95030.09;;;9.36;73.03
24160;BME280;62385;41.594;23.808;2023-11-21T16:01:11;95064.72;;;9.57;73.29
24160;BME280;62385;41.594;23.808;2023-11-21T16:04:00;95067.63;;;9.70;72.77
24160;BME280;62385;41.594;23.808;2023-11-21T16:06:43;95042.94;;;9.47;72.76
24160;BME280;62385;41.594;23.808;2023-11-21T16:09:33;95064.50;;;9.44;73.38
24160;BME280;62385;41.594;23.808;2023-11-21T16:15:01;95071.09;;;9.48;73.82
24160;BME280;62385;41.594;23.808;2023-11-21T16:17:37;95069.50;;;9.39;74.09
24160;BME280;62385;41.594;23.808;2023-11-21T16:20:07;95075.53;;;9.16;74.42
24160;BME280;62385;41.594;23.808;2023-11-21T16:22:40;95070.34;;;8.92;76.25
24160;BME280;62385;41.594;23.808;2023-11-21T16:25:07;95052.72;;;8.68;76.42
24160;BME280;62385;41.594;23.808;2023-11-21T16:27:39;95089.22;;;8.89;75.68
24160;BME280;62385;41.594;23.808;2023-11-21T16:30:07;95060.09;;;8.89;74.84
24160;BME280;62385;41.594;23.808;2023-11-21T16:32:39;95079.44;;;8.98;75.03
24160;BME280;62385;41.594;23.808;2023-11-21T16:35:44;95082.25;;;8.96;75.32
24160;BME280;62385;41.594;23.808;2023-11-21T16:38:12;95101.22;;;9.08;75.28
24160;BME280;62385;41.594;23.808;2023-11-21T16:40:41;95089.47;;;9.10;74.56
24160;BME280;62385;41.594;23.808;2023-11-21T16:43:09;95093.75;;;9.11;75.00
24160;BME280;62385;41.594;23.808;2023-11-21T16:45:35;95088.16;;;9.14;74.06
24160;BME280;62385;41.594;23.808;2023-11-21T16:48:01;95088.75;;;9.24;73.54
24160;BME280;62385;41.594;23.808;2023-11-21T16:50:28;95065.19;;;9.07;73.59
24160;BME280;62385;41.594;23.808;2023-11-21T16:52:54;95088.03;;;9.39;73.42
24160;BME280;62385;41.594;23.808;2023-11-21T16:55:19;95085.13;;;9.56;71.99
24160;BME280;62385;41.594;23.808;2023-11-21T16:57:46;95082.13;;;9.82;71.40
24160;BME280;62385;41.594;23.808;2023-11-21T17:00:11;95085.84;;;9.96;70.72
24160;BME280;62385;41.594;23.808;2023-11-21T17:02:40;95070.31;;;9.93;70.82
24160;BME280;62385;41.594;23.808;2023-11-21T17:05:09;95080.19;;;9.99;71.02
24160;BME280;62385;41.594;23.808;2023-11-21T17:11:14;95081.53;;;9.10;75.24
24160;BME280;62385;41.594;23.808;2023-11-21T17:13:46;95082.84;;;9.14;75.70
24160;BME280;62385;41.594;23.808;2023-11-21T17:16:12;95062.53;;;9.07;76.05
24160;BME280;62385;41.594;23.808;2023-11-21T17:18:38;95086.56;;;9.28;75.16
24160;BME280;62385;41.594;23.808;2023-11-21T17:21:04;95074.75;;;9.47;74.04
24160;BME280;62385;41.594;23.808;2023-11-21T17:23:31;95066.28;;;9.51;73.34
24160;BME280;62385;41.594;23.808;2023-11-21T17:25:57;95088.38;;;9.66;73.26
24160;BME280;62385;41.594;23.808;2023-11-21T17:28:23;95094.59;;;9.51;74.38
24160;BME280;62385;41.594;23.808;2023-11-21T17:30:52;95076.16;;;9.26;75.41
24160;BME280;62385;41.594;23.808;2023-11-21T17:33:19;95041.97;;;9.09;75.17
24160;BME280;62385;41.594;23.808;2023-11-21T17:35:45;95057.66;;;9.18;75.00
24160;BME280;62385;41.594;23.808;2023-11-21T17:38:12;95065.34;;;9.36;75.12
24160;BME280;62385;41.594;23.808;2023-11-21T17:40:43;95062.94;;;9.26;75.35
24160;BME280;62385;41.594;23.808;2023-11-21T17:43:15;95055.94;;;9.34;74.61
24160;BME280;62385;41.594;23.808;2023-11-21T17:49:53;95057.75;;;9.33;75.73
24160;BME280;62385;41.594;23.808;2023-11-21T17:52:19;95052.06;;;9.13;75.42
24160;BME280;62385;41.594;23.808;2023-11-21T17:54:50;95063.00;;;9.10;76.34
24160;BME280;62385;41.594;23.808;2023-11-21T17:57:22;95062.28;;;9.16;76.31
24160;BME280;62385;41.594;23.808;2023-11-21T18:03:04;95068.63;;;9.07;76.60
24160;BME280;62385;41.594;23.808;2023-11-21T18:05:29;95066.50;;;8.95;76.52
24160;BME280;62385;41.594;23.808;2023-11-21T18:07:56;95034.19;;;8.68;76.85
24160;BME280;62385;41.594;23.808;2023-11-21T18:10:27;95069.28;;;9.09;76.00
24160;BME280;62385;41.594;23.808;2023-11-21T18:12:53;95059.97;;;9.21;75.69
24160;BME280;62385;41.594;23.808;2023-11-21T18:15:19;95039.72;;;8.98;76.88
24160;BME280;62385;41.594;23.808;2023-11-21T18:17:45;95032.69;;;8.74;77.57
24160;BME280;62385;41.594;23.808;2023-11-21T18:20:11;95037.31;;;8.80;77.54
24160;BME280;62385;41.594;23.808;2023-11-21T18:22:37;95023.78;;;8.67;77.09
24160;BME280;62385;41.594;23.808;2023-11-21T18:25:04;95027.91;;;8.77;77.74
24160;BME280;62385;41.594;23.808;2023-11-21T18:27:30;95013.53;;;8.64;77.81
24160;BME280;62385;41.594;23.808;2023-11-21T18:29:56;95024.13;;;8.64;77.75
24160;BME280;62385;41.594;23.808;2023-11-21T18:32:28;95015.97;;;9.12;75.96
24160;BME280;62385;41.594;23.808;2023-11-21T18:34:54;95022.72;;;9.77;74.84
24160;BME280;62385;41.594;23.808;2023-11-21T18:37:21;95035.84;;;9.93;73.74
24160;BME280;62385;41.594;23.808;2023-11-21T18:39:50;94987.66;;;9.89;73.00
24160;BME280;62385;41.594;23.808;2023-11-21T18:42:19;95007.59;;;10.00;73.11
24160;BME280;62385;41.594;23.808;2023-11-21T18:44:47;95012.91;;;10.23;72.47
24160;BME280;62385;41.594;23.808;2023-11-21T18:47:12;95029.97;;;10.43;72.31
24160;BME280;62385;41.594;23.808;2023-11-21T18:49:42;95030.88;;;10.50;72.32